TimeCST,TemperatureF,Dew PointF,Humidity,Sea Level PressureIn,VisibilityMPH,Wind Direction,Wind SpeedMPH,Gust SpeedMPH,PrecipitationIn,Events,Conditions,WindDirDegrees,DateUTC
12:53 AM,1.9,-2.9,80,30.32,7.0,Calm,Calm,-,N/A,,Overcast,0,2012-12-27 06:53:00
1:53 AM,3.0,-2.0,80,30.32,5.0,Calm,Calm,-,0.00,,Haze,0,2012-12-27 07:53:00
2:53 AM,3.0,-2.0,80,30.30,10.0,ENE,5.8,-,N/A,,Overcast,70,2012-12-27 08:53:00
3:53 AM,3.9,-0.9,80,30.31,10.0,Calm,Calm,-,N/A,,Overcast,0,2012-12-27 09:53:00
4:53 AM,5.0,-0.0,80,30.29,10.0,NNE,3.5,-,N/A,,Overcast,30,2012-12-27 10:53:00
5:53 AM,7.0,1.0,77,30.28,10.0,ENE,3.5,-,N/A,,Overcast,70,2012-12-27 11:53:00
6:53 AM,8.1,1.9,76,30.28,10.0,Calm,Calm,-,N/A,,Overcast,0,2012-12-27 12:53:00
7:53 AM,8.1,3.0,80,30.29,10.0,Calm,Calm,-,N/A,,Overcast,0,2012-12-27 13:53:00
8:53 AM,9.0,3.9,80,30.30,10.0,Calm,Calm,-,N/A,,Overcast,0,2012-12-27 14:53:00
9:53 AM,10.9,5.0,77,30.30,10.0,East,3.5,-,N/A,,Overcast,80,2012-12-27 15:53:00
10:53 AM,14.0,6.1,71,30.30,10.0,ESE,4.6,-,N/A,,Overcast,110,2012-12-27 16:53:00
11:53 AM,15.8,6.8,68,30.19,10.0,East,6.9,-,N/A,,Overcast,100,2012-12-27 17:53:00
12:53 PM,15.1,7.0,70,30.24,9.0,ESE,6.9,-,N/A,,Mostly Cloudy,120,2012-12-27 18:53:00
1:53 PM,16.0,9.0,74,30.22,10.0,SE,6.9,-,N/A,,Overcast,130,2012-12-27 19:53:00
2:17 PM,17.6,8.6,68,30.15,2.5,SE,6.9,-,0.00,Snow,Light Snow,130,2012-12-27 20:17:00
2:27 PM,17.6,10.4,73,30.15,4.0,SE,5.8,-,0.00,Snow,Light Snow,130,2012-12-27 20:27:00
2:32 PM,17.6,8.6,68,30.15,2.5,ESE,6.9,-,0.00,Snow,Light Snow,120,2012-12-27 20:32:00
2:50 PM,17.6,10.4,73,30.15,3.0,ESE,6.9,-,0.00,Snow,Light Snow,120,2012-12-27 20:50:00
2:53 PM,17.1,10.0,74,30.22,3.0,ESE,6.9,-,0.00,Snow,Light Snow,120,2012-12-27 20:53:00
3:53 PM,17.1,10.0,74,30.22,3.0,ESE,4.6,-,0.00,Snow,Light Snow,110,2012-12-27 21:53:00
4:08 PM,17.6,10.4,73,30.15,1.8,East,4.6,-,0.00,Snow,Light Snow,100,2012-12-27 22:08:00
4:25 PM,17.6,10.4,73,30.15,2.5,East,3.5,-,0.00,Snow,Light Snow,90,2012-12-27 22:25:00
4:53 PM,16.0,10.9,81,30.22,2.5,Calm,Calm,-,0.01,Snow,Light Snow,0,2012-12-27 22:53:00
5:01 PM,15.8,10.4,79,30.16,4.0,Calm,Calm,-,0.00,Snow,Light Snow,0,2012-12-27 23:01:00
5:45 PM,15.8,10.4,79,30.16,2.5,Calm,Calm,-,0.00,Snow,Light Snow,0,2012-12-27 23:45:00
5:53 PM,15.8,10.4,79,30.16,2.5,Calm,Calm,-,N/A,Snow,Light Snow,0,2012-12-27 23:53:00
6:11 PM,15.8,10.4,79,30.15,4.0,Calm,Calm,-,0.00,Snow,Light Snow,0,2012-12-28 00:11:00
6:53 PM,14.0,10.0,84,30.22,3.0,Calm,Calm,-,0.00,Snow,Light Snow,0,2012-12-28 00:53:00
7:53 PM,12.9,9.0,84,30.22,8.0,Calm,Calm,-,0.00,,Mostly Cloudy,0,2012-12-28 01:53:00
8:53 PM,12.0,8.1,84,30.21,5.0,Calm,Calm,-,N/A,,Partly Cloudy,0,2012-12-28 02:53:00
9:39 PM,10.4,6.8,85,30.14,2.5,Calm,Calm,-,N/A,,Scattered Clouds,0,2012-12-28 03:39:00
9:50 PM,10.4,6.8,85,30.14,1.5,Calm,Calm,-,N/A,,Mostly Cloudy,0,2012-12-28 03:50:00
9:53 PM,10.9,7.0,84,30.21,3.0,Calm,Calm,-,N/A,,Mostly Cloudy,0,2012-12-28 03:53:00
10:53 PM,12.0,8.1,84,30.21,3.0,Calm,Calm,-,0.00,,Overcast,0,2012-12-28 04:53:00
11:13 PM,10.4,6.8,85,30.15,2.0,Calm,Calm,-,0.00,Snow,Light Snow,0,2012-12-28 05:13:00
11:53 PM,12.0,7.0,80,30.21,4.0,Calm,Calm,-,0.00,Snow,Light Snow,0,2012-12-28 05:53:00